X  Cerrar Datos meteorológicos de aviación METAR     LEXJ Santander Airport
Temperatura
19°C Temperatura
5°C Punto de rocío
40% Humedad



Viento
14 KM/H
9 MPH
4 M/S
8 NUDO



200°
SSO
Condiciones actuales

Claro Claro
Presión 1024.92 (hPa) - 30.27 (inHg)
Visibilidad 6.2 (milla) - 10 (km)
✈️ Santander
Código de aeropuerto LEXJ

localidad: Santander Airport
Distancia: 36 (km)

Metar:
LEXJ 242200Z 20008KT 160V240 CAVOK 19/05 Q1025

Hora: 24-02-2021 23:00 CET